Hauptseite
METAR-TAF:

METAR-TAF

Flughäfen :

Athen, Griechenland

Eleftherios-Venizelos-Flughafen Athen

Breite: 37-56N, Länge: 023-56E, Höhe: 94 m

Beobachtung

Neuester Wetterbericht von vor 43 Minuten, um 07:50 UTC
Wind 8 kt aus Nord/Nordost
Temperatur 23°C
Luftfeuchtigkeit 41%
Luftdruck 1020 hPa
Sichtweite 10 km oder mehr
Leicht bewölkt in der Höhe von 2000 ft

METAR: LGAV 240750Z 02008KT 9999 FEW020 23/09 Q1020 NOSIG

Zeit: 11:33 (08:33 UTC)

Prognose

Neuester Wetterbericht von vor 3 Stunden und 33 Minuten, um 05:00 UTC
Gültige Prognose vom 24 um 06 UTC bis 25 um 06 UTC
Wind 13 kt aus Nordost
Sichtweite 10 km oder mehr
Leicht bewölkt in der Höhe von 2000 ft
Übergehend zu
vom 24 um 17 UTC bis 24 um 19 UTC
Wind 3 kt aus unterschiedlichen Richtungen

TAF: LGAV 240500Z 2406/2506 05013KT 9999 FEW020 BECMG 2417/2419 VRB03KT

Wetterbeobachtungen und Prognosen von mehr als 4000 Flughäfen (METAR und TAF Bericht).

Die verfügbaren Stationen werden durch gelbe und rote Markierungen auf der Karte dargestellt.

Führen Sie die Maus auf sie, um den Namen der Station zu sehen.

Darauf klicken, um die Beobachtung von Wetterbeobachtungen und Prognosen zu sehen.

Um die Karte zu ändern : klicken Sie auf den grünen Tasten mit einem schwarzen Kreuz Zum Vergrößern, auf den grünen Button mit einem Gedankenstrich zu verkleinern, oder auf die grünen Pfeile für benachbarte Karten.


METAR-TAF: